Airfield :







YOU CAN JOIN US ON...

 
LOGIN :

Register | Disclaimer

   EN    FR    IT 

 









Legend :    VFR   Marginal VFR   IFR   Intensive IFR   Very Intensive IFR
Visi :
Ceiling :
>= 8 km
>= 3000ft
5 to 8 km
1000 to 3000 ft
1500m to 5 km
500 to 1000 ft
800 to 1500m
200 to 500 ft
< 800m
< 200 ft
Symbols :   Thunderstorms  Fog  Heavy snow  Heavy precipitations  Wind > 20 kt






- Airport Elevation : 199 ft
- IATA code : YRQ


CYRQ - Trois-Rivières

CURRENT METAR :
  • 120345Z AUTO 26007G17KT 220V310 9SM -SN SCT040 BKN050 BKN060 M07/M12 A3019 RMK PRESRR SLP231

EXPIRED METARs :
  • 120300Z AUTO 25005KT 210V280 9SM FEW070 SCT082 M07/M11 A3015 RMK PRESRR SLP215
  • 120200Z AUTO 25007KT 9SM FEW012 SCT090 BKN110 M06/M07 A3010 RMK PRESRR SLP199
  • 120151Z AUTO 24009KT 9SM FEW012 M06/M07 A3010 RMK PRESRR SLP198
  • 120137Z AUTO 23009G15KT 9SM -SN FEW013 SCT018 SCT024 BKN031 M06/M07 A3008 RMK SLP192
  • 120115Z AUTO 21006KT 9SM -SN BKN013 OVC029 M06/M07 A3007 RMK SLP190
  • 120101Z AUTO 20003KT 9SM BKN013 OVC018 M06/M07 A3007 RMK SLP190

TAF AMD TAF CYRQ
Valid from the 12 at 03:00 until the 12 at 14:00 UTC


120320Z 1203/1214 25005KT P6SM FEW070
FM120400 25012G22KT P6SM FEW030
BECMG 1207/1209 27010KT RMK FCST BASED ON AUTO OBS. NXT FCST BY 120800Z



MET'MAP, your aeronautical weather chart ! - Copyright ORBIFLY December 2007 - Disclaimer

ORBIFLY MET'MAP TEAM :

Programming & Development : Alexandra Zaïnal
Concept & original design : Baudouin d'Aumeries
Assistance for programming : Marc-Olivier Méhu
Technical & hardware support : Manuel Goepfert

Contact : metmap@orbifly.com




SOURCES & CREDITS :

   NOAA